createdAt,value
2018-06-15T00:06:09.006Z,53.30
2018-06-15T00:16:10.262Z,54.50
2018-06-15T00:26:11.487Z,53.30
2018-06-15T00:36:12.743Z,53.50
2018-06-15T00:46:13.980Z,54.50
2018-06-15T00:56:15.230Z,54.10
2018-06-15T01:06:16.488Z,53.90
2018-06-15T01:16:17.895Z,54.30
2018-06-15T01:26:19.293Z,53.50
2018-06-15T01:36:21.458Z,53.10
2018-06-15T01:46:22.711Z,53.00
2018-06-15T01:56:24.705Z,52.70
2018-06-15T02:06:25.940Z,52.70
2018-06-15T02:16:27.171Z,54.30
2018-06-15T02:26:28.420Z,54.80
2018-06-15T02:36:29.657Z,52.80
2018-06-15T02:46:30.921Z,51.60
2018-06-15T02:56:32.179Z,51.80
2018-06-15T03:06:33.449Z,52.30
2018-06-15T03:16:35.802Z,51.30
2018-06-15T03:26:37.059Z,51.70
2018-06-15T03:36:38.460Z,51.70
2018-06-15T03:46:39.715Z,51.60
2018-06-15T03:56:40.947Z,51.90
2018-06-15T04:06:42.199Z,51.70
2018-06-15T04:26:50.738Z,51.40
2018-06-15T04:36:51.975Z,52.90
2018-06-15T04:46:53.400Z,50.80
2018-06-15T04:56:54.808Z,52.00
2018-06-15T05:06:56.083Z,51.90
2018-06-15T05:16:57.342Z,51.60
2018-06-15T05:26:58.588Z,51.90
2018-06-15T05:36:59.862Z,52.10
2018-06-15T05:47:01.094Z,52.30
2018-06-15T05:57:02.335Z,50.50
2018-06-15T06:07:03.562Z,50.70
2018-06-15T06:17:04.796Z,51.00
2018-06-15T06:27:06.789Z,48.60
2018-06-15T06:37:08.047Z,48.20
2018-06-15T06:47:09.444Z,49.30
2018-06-15T06:57:10.841Z,45.00
2018-06-15T07:07:12.129Z,47.10
2018-06-15T07:17:13.375Z,45.50
2018-06-15T07:27:14.643Z,42.80
2018-06-15T07:37:15.874Z,35.70
2018-06-15T07:47:17.122Z,29.70
2018-06-15T07:57:18.362Z,27.90
2018-06-15T08:07:19.603Z,28.40
2018-06-15T08:17:20.859Z,31.60
2018-06-15T08:27:22.890Z,29.40
2018-06-15T08:37:24.147Z,29.30
2018-06-15T08:47:25.418Z,30.00
2018-06-15T08:57:26.683Z,34.70
2018-06-15T09:07:27.964Z,37.80
2018-06-15T09:17:29.995Z,36.20
2018-06-15T09:27:31.244Z,36.10
2018-06-15T09:37:32.483Z,39.70
2018-06-15T09:47:33.716Z,35.20
2018-06-15T09:57:34.959Z,32.50
2018-06-15T10:07:36.212Z,29.90
2018-06-15T10:17:37.455Z,26.20
2018-06-15T10:27:38.711Z,25.20
2018-06-15T10:37:39.963Z,31.00
2018-06-15T10:47:41.235Z,36.50
2018-06-15T10:57:43.398Z,40.50
2018-06-15T11:07:44.801Z,40.40
2018-06-15T11:17:49.802Z,40.90
2018-06-15T11:27:51.047Z,42.40
2018-06-15T11:37:52.302Z,41.40
2018-06-15T11:47:53.547Z,40.40
2018-06-15T11:57:54.798Z,41.40
2018-06-15T12:07:56.855Z,40.80
2018-06-15T12:17:58.826Z,40.90
2018-06-15T12:28:01.365Z,39.70
2018-06-15T12:38:02.847Z,39.70
2018-06-15T12:48:05.671Z,40.50
2018-06-15T12:58:07.310Z,39.60
2018-06-15T13:08:08.759Z,39.10
2018-06-15T13:18:10.010Z,38.80
2018-06-15T13:28:11.426Z,37.20
2018-06-15T13:38:12.845Z,39.00
2018-06-15T13:48:14.095Z,37.20
2018-06-15T13:58:15.333Z,39.90
2018-06-15T14:08:16.558Z,39.20
2018-06-15T14:18:18.583Z,40.10
2018-06-15T14:28:20.641Z,41.90
2018-06-15T14:38:21.887Z,41.80
2018-06-15T14:48:23.898Z,41.70
2018-06-15T14:58:25.951Z,42.10
2018-06-15T15:08:27.356Z,42.00
2018-06-15T15:18:28.638Z,41.80
2018-06-15T15:28:30.057Z,42.00
2018-06-15T15:38:31.323Z,41.90
2018-06-15T15:48:32.590Z,42.80
2018-06-15T15:58:34.630Z,39.70
2018-06-15T16:08:35.893Z,39.60
2018-06-15T16:18:37.140Z,41.80
2018-06-15T16:28:38.779Z,41.60
2018-06-15T16:38:40.082Z,42.20
2018-06-15T16:48:41.314Z,44.70
2018-06-15T16:58:42.565Z,44.00
2018-06-15T17:08:43.797Z,43.00
2018-06-15T17:18:45.036Z,44.90
2018-06-15T17:28:46.299Z,44.10
2018-06-15T17:38:47.565Z,44.00
2018-06-15T17:48:49.594Z,45.50
2018-06-15T17:58:50.879Z,45.50
2018-06-15T18:08:52.912Z,49.20
2018-06-15T18:18:54.183Z,49.20
2018-06-15T18:28:56.222Z,50.30
2018-06-15T18:38:57.449Z,50.20
2018-06-15T18:48:58.852Z,52.00
2018-06-15T18:59:00.099Z,53.30
2018-06-15T19:09:01.336Z,54.00
2018-06-15T19:19:02.562Z,56.90
2018-06-15T19:29:03.893Z,58.20
2018-06-15T19:39:05.091Z,59.00
2018-06-15T19:59:13.498Z,58.80
2018-06-15T20:09:15.532Z,57.80
2018-06-15T20:19:16.779Z,57.80
2018-06-15T20:29:18.034Z,57.70
2018-06-15T20:39:19.269Z,58.00
2018-06-15T20:49:20.510Z,59.30
2018-06-15T20:59:21.735Z,58.90
2018-06-15T21:09:22.970Z,59.10
2018-06-15T21:19:24.982Z,59.70
2018-06-15T21:29:27.011Z,59.90
2018-06-15T21:39:29.034Z,59.20
2018-06-15T21:49:30.291Z,59.20
2018-06-15T21:59:31.701Z,59.60
2018-06-15T22:09:33.736Z,61.30
2018-06-15T22:19:36.216Z,61.20
2018-06-15T22:29:37.606Z,59.70
2018-06-15T22:39:38.842Z,60.50
2018-06-15T22:49:40.838Z,59.40
2018-06-15T22:59:42.062Z,59.40
2018-06-15T23:09:43.317Z,59.80
2018-06-15T23:19:44.539Z,61.90
2018-06-15T23:29:46.708Z,60.60
2018-06-15T23:39:47.969Z,60.60
2018-06-15T23:49:49.362Z,59.30
2018-06-15T23:59:50.814Z,59.20
